Time;durP1;ratioP1;P1;durP2;ratioP2;P2;SDS_P1;SDS_P2;PMS_P1;PMS_P2;Temp;Humidity;BMP_temperature;BMP_pressure;BME280_temperature;BME280_humidity;BME280_pressure;Samples;Min_cycle;Max_cycle;Signal;HPM_P1;HPM_P2
2022/06/08 00:00:12;;;;;;;1.30;1.20;;;;;;;17.79;76.95;95442.47;4956361;28;20215;-86
2022/06/08 00:02:41;;;;;;;1.55;1.40;;;;;;;17.79;77.01;95440.66;4958981;28;20272;-87
2022/06/08 00:05:08;;;;;;;1.17;1.05;;;;;;;17.79;76.82;95443.25;4957699;29;20212;-86
2022/06/08 00:07:35;;;;;;;2.20;1.35;;;;;;;17.77;76.63;95439.28;4959811;29;20197;-86
2022/06/08 00:10:02;;;;;;;2.00;1.42;;;;;;;17.77;76.84;95442.69;4957353;29;20201;-86
2022/06/08 00:12:28;;;;;;;3.20;1.48;;;;;;;17.76;76.88;95432.50;4957095;28;20228;-86
2022/06/08 00:14:55;;;;;;;1.40;1.30;;;;;;;17.75;76.96;95426.50;4956997;29;20204;-87
2022/06/08 00:17:23;;;;;;;1.52;1.23;;;;;;;17.74;76.74;95435.31;4957859;29;20254;-85
2022/06/08 00:19:50;;;;;;;1.50;1.40;;;;;;;17.74;77.27;95434.53;4957639;29;20200;-87
2022/06/08 00:22:17;;;;;;;1.50;1.40;;;;;;;17.71;77.25;95429.75;4956389;28;20228;-86
2022/06/08 00:24:44;;;;;;;1.48;1.38;;;;;;;17.69;77.61;95426.63;4957510;29;20205;-85
2022/06/08 00:27:10;;;;;;;1.38;1.27;;;;;;;17.69;77.79;95427.41;4957811;29;20196;-86
2022/06/08 00:29:37;;;;;;;1.40;1.30;;;;;;;17.68;77.69;95423.22;4957478;29;20542;-85
2022/06/08 00:32:04;;;;;;;1.42;1.33;;;;;;;17.63;77.83;95420.47;4956443;28;20260;-86
2022/06/08 00:34:32;;;;;;;1.88;1.17;;;;;;;17.56;78.06;95412.75;4956904;29;20318;-86
2022/06/08 00:36:58;;;;;;;1.40;1.15;;;;;;;17.55;78.35;95416.34;4956902;29;20220;-86
2022/06/08 00:39:24;;;;;;;1.42;1.20;;;;;;;17.54;78.45;95421.78;4957016;29;20268;-86
2022/06/08 00:41:54;;;;;;;1.88;1.27;;;;;;;17.51;78.64;95417.81;4954908;28;20237;-86
2022/06/08 00:44:25;;;;;;;1.63;1.30;;;;;;;17.51;78.14;95423.03;4956445;29;20192;-86
2022/06/08 00:46:53;;;;;;;1.40;1.30;;;;;;;17.48;78.66;95420.88;4956429;29;20304;-86
2022/06/08 00:49:24;;;;;;;2.05;1.30;;;;;;;17.41;79.35;95420.19;4957064;29;20209;-85
2022/06/08 00:51:53;;;;;;;1.75;1.23;;;;;;;17.43;78.95;95418.16;4955834;28;20229;-86
2022/06/08 00:54:25;;;;;;;1.02;1.02;;;;;;;17.46;78.92;95417.72;4956390;29;20208;-86
2022/06/08 00:56:57;;;;;;;1.90;1.25;;;;;;;17.45;78.81;95410.91;4956456;29;20220;-86
2022/06/08 00:59:24;;;;;;;1.77;1.40;;;;;;;17.50;78.69;95416.25;4956246;29;20201;-85
2022/06/08 01:01:50;;;;;;;3.20;1.30;;;;;;;17.53;78.29;95415.78;4954841;28;20264;-86
2022/06/08 01:04:19;;;;;;;1.30;1.20;;;;;;;17.59;78.14;95419.31;4955760;29;20201;-86
2022/06/08 01:06:53;;;;;;;3.55;1.30;;;;;;;17.58;78.42;95410.72;4956251;29;20204;-85
2022/06/08 01:09:29;;;;;;;1.40;1.30;;;;;;;17.59;78.69;95406.28;4937687;29;20631;-85
2022/06/08 01:11:59;;;;;;;3.03;1.25;;;;;;;17.57;78.75;95400.50;4940819;29;20232;-85
2022/06/08 01:14:27;;;;;;;2.13;1.40;;;;;;;17.61;78.90;95406.88;4955536;29;20248;-86
2022/06/08 01:16:58;;;;;;;1.60;1.50;;;;;;;17.64;78.93;95406.47;4956386;29;20275;-86
2022/06/08 01:19:24;;;;;;;2.90;1.23;;;;;;;17.68;78.89;95404.19;4956910;29;20628;-86
2022/06/08 01:21:58;;;;;;;1.55;1.45;;;;;;;17.67;79.06;95400.00;4955570;28;20228;-86
2022/06/08 01:24:26;;;;;;;1.50;1.40;;;;;;;17.68;78.72;95401.59;4956603;29;20696;-85
2022/06/08 01:27:05;;;;;;;1.75;1.65;;;;;;;17.66;79.18;95396.59;4956636;29;20201;-86
2022/06/08 01:29:39;;;;;;;2.90;1.65;;;;;;;17.69;79.00;95400.59;4956692;29;20213;-86
2022/06/08 01:32:17;;;;;;;1.70;1.60;;;;;;;17.71;79.05;95396.72;4955213;28;20228;-86
2022/06/08 01:34:55;;;;;;;2.17;1.73;;;;;;;17.72;79.15;95400.09;4956104;29;20201;-85
2022/06/08 01:37:33;;;;;;;1.60;1.50;;;;;;;17.67;79.52;95387.78;4957052;29;20231;-86
2022/06/08 01:40:17;;;;;;;1.50;1.40;;;;;;;17.66;79.35;95386.19;4956721;28;20716;-86
2022/06/08 01:42:59;;;;;;;1.80;1.60;;;;;;;17.69;79.16;95384.94;4956743;28;20236;-86
2022/06/08 01:45:40;;;;;;;2.85;1.38;;;;;;;17.71;78.98;95380.28;4956685;29;20212;-86
2022/06/08 01:48:26;;;;;;;2.05;1.25;;;;;;;17.66;79.41;95373.19;4956454;29;20201;-86
2022/06/08 01:51:04;;;;;;;1.40;1.30;;;;;;;17.68;79.57;95371.13;4955709;28;20283;-86
2022/06/08 01:53:47;;;;;;;2.25;1.25;;;;;;;17.68;79.34;95360.72;4954885;28;20201;-86
2022/06/08 01:56:21;;;;;;;1.75;1.30;;;;;;;17.66;79.40;95354.94;4959831;29;20319;-86
2022/06/08 01:59:02;;;;;;;1.60;1.50;;;;;;;17.67;79.21;95356.53;4959680;29;20214;-85
2022/06/08 02:01:36;;;;;;;2.15;1.30;;;;;;;17.65;79.26;95358.56;4959116;28;20311;-86
2022/06/08 02:04:11;;;;;;;1.50;1.40;;;;;;;17.68;79.07;95357.34;4960883;29;20211;-86
2022/06/08 02:06:45;;;;;;;1.40;1.30;;;;;;;17.64;79.19;95345.75;4959427;29;20196;-86
2022/06/08 02:09:18;;;;;;;1.27;1.17;;;;;;;17.63;79.17;95344.16;4960040;29;20757;-86
2022/06/08 02:11:50;;;;;;;1.48;1.27;;;;;;;17.58;79.23;95344.81;4959034;28;20240;-86
2022/06/08 02:14:21;;;;;;;1.60;1.33;;;;;;;17.54;78.85;95334.06;4960322;29;20228;-86
2022/06/08 02:16:51;;;;;;;1.48;1.30;;;;;;;17.56;79.15;95333.84;4959532;28;20725;-86
2022/06/08 02:19:22;;;;;;;1.40;1.30;;;;;;;17.59;79.03;95334.19;4940390;29;20205;-86
2022/06/08 02:21:54;;;;;;;1.08;1.02;;;;;;;17.61;78.72;95339.16;4943286;29;20803;-86
2022/06/08 02:24:25;;;;;;;1.48;1.38;;;;;;;17.54;78.58;95334.06;4959811;29;20228;-86
2022/06/08 02:26:56;;;;;;;1.25;1.15;;;;;;;17.47;78.86;95341.22;4959674;29;20217;-86
2022/06/08 02:29:29;;;;;;;1.88;1.45;;;;;;;17.50;78.43;95342.56;4960330;29;20351;-86
2022/06/08 02:32:01;;;;;;;1.48;1.33;;;;;;;17.49;78.76;95338.38;4958658;28;20256;-85
2022/06/08 02:34:32;;;;;;;2.13;1.15;;;;;;;17.46;78.35;95339.63;4959942;29;20204;-86
2022/06/08 02:37:07;;;;;;;2.13;1.40;;;;;;;17.48;78.21;95342.78;4959361;29;20224;-87
2022/06/08 02:39:41;;;;;;;1.38;1.27;;;;;;;17.45;78.36;95338.03;4958923;29;20216;-86
2022/06/08 02:42:13;;;;;;;1.30;1.20;;;;;;;17.47;78.45;95346.41;4958221;28;20224;-86
2022/06/08 02:44:42;;;;;;;1.60;1.35;;;;;;;17.45;78.31;95342.44;4959028;29;20663;-86
2022/06/08 02:47:15;;;;;;;2.05;1.30;;;;;;;17.47;78.01;95341.22;4959233;29;20248;-86
2022/06/08 02:49:42;;;;;;;1.23;1.13;;;;;;;17.49;77.82;95341.78;4959280;28;20209;-86
2022/06/08 02:52:19;;;;;;;1.52;1.40;;;;;;;17.45;77.86;95342.44;4957346;28;20228;-86
2022/06/08 02:54:47;;;;;;;1.50;1.30;;;;;;;17.44;77.41;95338.25;4958991;29;20205;-86
2022/06/08 02:57:21;;;;;;;2.38;1.30;;;;;;;17.42;77.32;95338.47;4959154;28;20244;-86
2022/06/08 02:59:54;;;;;;;1.38;1.23;;;;;;;17.40;77.22;95337.13;4959486;28;20226;-86
2022/06/08 03:02:27;;;;;;;1.42;1.20;;;;;;;17.39;76.97;95330.31;4957525;28;20233;-87
2022/06/08 03:04:58;;;;;;;1.90;1.27;;;;;;;17.35;77.05;95339.59;4957217;28;20625;-86
2022/06/08 03:07:30;;;;;;;1.65;1.30;;;;;;;17.34;77.49;95343.22;4958230;29;20201;-86
2022/06/08 03:09:59;;;;;;;1.42;1.33;;;;;;;17.37;77.15;95347.97;4959079;29;20232;-86
2022/06/08 03:12:31;;;;;;;1.30;1.20;;;;;;;17.38;77.02;95342.53;4957406;28;20235;-86
2022/06/08 03:14:57;;;;;;;1.40;1.20;;;;;;;17.38;76.74;95341.75;4958265;29;20239;-86
2022/06/08 03:17:31;;;;;;;1.58;1.30;;;;;;;17.38;76.68;95341.75;4958285;29;20230;-86
2022/06/08 03:19:57;;;;;;;1.63;1.30;;;;;;;17.36;76.76;95338.56;4958680;29;20212;-86
2022/06/08 03:22:24;;;;;;;1.60;1.50;;;;;;;17.33;76.87;95342.41;4957634;28;20756;-87
2022/06/08 03:24:50;;;;;;;1.38;1.20;;;;;;;17.27;77.31;95345.94;4959196;29;20204;-86
2022/06/08 03:27:18;;;;;;;1.77;1.30;;;;;;;17.31;76.90;95336.66;4958136;29;20204;-85
2022/06/08 03:29:45;;;;;;;2.83;1.40;;;;;;;17.29;77.05;95343.91;4958437;29;20607;-85
2022/06/08 03:32:12;;;;;;;1.55;1.27;;;;;;;17.26;76.64;95339.94;4958114;28;20244;-85
2022/06/08 03:34:38;;;;;;;1.40;1.30;;;;;;;17.26;76.59;95336.53;4958426;29;20208;-86
2022/06/08 03:37:05;;;;;;;1.55;1.45;;;;;;;17.28;76.59;95342.31;4958539;29;20216;-86
2022/06/08 03:39:32;;;;;;;1.60;1.50;;;;;;;17.26;76.63;95339.13;4957795;29;20193;-86
2022/06/08 03:41:58;;;;;;;1.40;1.30;;;;;;;17.26;76.23;95337.34;4957552;28;20236;-85
2022/06/08 03:44:26;;;;;;;1.52;1.30;;;;;;;17.21;75.85;95339.00;4957967;29;20669;-87
2022/06/08 03:46:56;;;;;;;2.55;1.40;;;;;;;17.21;75.77;95339.81;4957682;29;20628;-86
2022/06/08 03:49:24;;;;;;;2.10;1.35;;;;;;;17.20;76.01;95343.41;4958061;29;20196;-86
2022/06/08 03:51:53;;;;;;;1.83;1.13;;;;;;;17.18;75.87;95339.44;4951338;28;20337;-85
2022/06/08 03:54:23;;;;;;;1.75;1.27;;;;;;;17.17;75.98;95343.06;4956665;29;20404;-86
2022/06/08 03:56:53;;;;;;;1.63;1.27;;;;;;;17.07;75.98;95343.63;4958032;28;20205;-87
2022/06/08 03:59:20;;;;;;;4.70;1.27;;;;;;;17.05;76.07;95348.25;4958906;29;20212;-86
2022/06/08 04:01:47;;;;;;;2.35;1.30;;;;;;;17.06;76.07;95341.25;4958275;28;20232;-86
2022/06/08 04:04:14;;;;;;;1.40;1.30;;;;;;;17.10;75.71;95340.59;4958371;29;20201;-86
2022/06/08 04:06:41;;;;;;;1.50;1.40;;;;;;;17.14;75.56;95343.50;4958291;29;20235;-86
2022/06/08 04:09:07;;;;;;;1.50;1.10;;;;;;;17.12;75.54;95340.38;4957714;29;20716;-88
2022/06/08 04:11:34;;;;;;;2.38;1.40;;;;;;;17.22;76.71;95338.78;4952933;28;20224;-88
2022/06/08 04:14:01;;;;;;;2.83;1.35;;;;;;;17.28;78.08;95334.50;4954370;29;20205;-88
2022/06/08 04:16:28;;;;;;;1.42;1.30;;;;;;;17.39;76.92;95340.72;4954348;28;20205;-88
2022/06/08 04:18:56;;;;;;;3.28;1.55;;;;;;;17.46;75.61;95331.81;4955240;29;20307;-88
2022/06/08 04:21:23;;;;;;;2.53;1.45;;;;;;;17.48;74.49;95329.00;4953820;28;20730;-88
2022/06/08 04:23:49;;;;;;;3.47;1.40;;;;;;;17.54;74.54;95333.28;4954661;29;20201;-88
2022/06/08 04:26:16;;;;;;;2.30;1.30;;;;;;;17.55;73.96;95335.66;4954350;29;20239;-89
2022/06/08 04:28:45;;;;;;;5.00;1.60;;;;;;;17.57;74.91;95331.00;4954840;29;20213;-88
2022/06/08 04:31:11;;;;;;;1.42;1.30;;;;;;;17.55;73.63;95340.06;4953564;28;20243;-87
2022/06/08 04:33:38;;;;;;;2.17;1.30;;;;;;;17.60;74.43;95334.97;4955436;29;20209;-88
2022/06/08 04:36:06;;;;;;;3.53;1.50;;;;;;;17.66;73.17;95335.94;4955084;29;20208;-88
2022/06/08 04:38:33;;;;;;;1.85;1.40;;;;;;;17.66;72.59;95330.72;4957327;29;20212;-88
2022/06/08 04:41:01;;;;;;;1.92;1.40;;;;;;;17.67;72.55;95327.91;4959563;28;20229;-89
2022/06/08 04:43:28;;;;;;;1.73;1.42;;;;;;;17.71;71.33;95320.41;4957985;29;20213;-88
2022/06/08 04:45:54;;;;;;;1.42;1.33;;;;;;;17.81;71.04;95320.63;4953053;29;20396;-88
2022/06/08 04:48:21;;;;;;;2.92;1.95;;;;;;;17.90;74.17;95316.66;4956461;29;20205;-88
2022/06/08 04:50:48;;;;;;;1.23;1.13;;;;;;;17.93;72.05;95311.00;4956122;28;20236;-87
2022/06/08 04:53:17;;;;;;;2.35;1.52;;;;;;;18.07;72.62;95316.75;4958107;29;20217;-87
2022/06/08 04:55:43;;;;;;;2.35;1.60;;;;;;;18.21;71.32;95311.06;4959362;28;20228;-88
2022/06/08 04:58:10;;;;;;;3.40;1.40;;;;;;;18.35;70.82;95308.97;4959497;29;20236;-87
2022/06/08 05:00:36;;;;;;;1.67;1.40;;;;;;;18.49;70.19;95312.09;4958367;28;20233;-89
2022/06/08 05:03:03;;;;;;;2.00;1.52;;;;;;;18.51;69.08;95303.03;4955656;29;20239;-88
2022/06/08 05:05:32;;;;;;;3.97;1.40;;;;;;;18.59;68.85;95301.91;4954125;28;20694;-87
2022/06/08 05:07:59;;;;;;;1.98;1.20;;;;;;;18.75;70.07;95308.19;4953223;29;20197;-87
2022/06/08 05:10:30;;;;;;;1.85;1.60;;;;;;;18.80;68.09;95301.25;4952065;28;20236;-87
2022/06/08 05:12:57;;;;;;;1.92;1.50;;;;;;;18.86;67.82;95302.88;4934917;29;20194;-87
2022/06/08 05:15:26;;;;;;;11.02;2.70;;;;;;;18.84;67.80;95297.16;4943840;29;20212;-87
2022/06/08 05:17:53;;;;;;;8.93;3.90;;;;;;;18.85;68.40;95298.72;4952271;29;20227;-88
2022/06/08 05:20:19;;;;;;;3.60;1.90;;;;;;;18.82;67.93;95298.41;4951534;28;20204;-85
2022/06/08 05:22:46;;;;;;;1.75;1.60;;;;;;;18.91;68.48;95289.16;4953079;28;20291;-87
2022/06/08 05:25:16;;;;;;;3.38;1.98;;;;;;;18.90;67.55;95298.78;4952884;29;20197;-84
2022/06/08 05:27:43;;;;;;;5.43;1.75;;;;;;;19.03;68.90;95299.53;4952900;28;20223;-86
2022/06/08 05:30:12;;;;;;;2.90;1.92;;;;;;;19.11;68.39;95294.72;4955503;28;20275;-86
2022/06/08 05:32:39;;;;;;;1.40;1.27;;;;;;;19.10;66.58;95290.50;4956520;28;20225;-85
2022/06/08 05:35:06;;;;;;;2.45;1.40;;;;;;;19.15;66.51;95292.41;4957147;29;20685;-87
2022/06/08 05:37:32;;;;;;;1.55;1.23;;;;;;;19.19;66.21;95289.09;4939427;29;20221;-86
2022/06/08 05:39:59;;;;;;;2.63;1.42;;;;;;;19.18;65.89;95284.13;4956532;28;20204;-87
2022/06/08 05:42:26;;;;;;;5.88;3.85;;;;;;;19.31;66.62;95283.78;4953331;28;20311;-87
2022/06/08 05:44:53;;;;;;;7.40;4.13;;;;;;;19.43;67.08;95279.28;4947992;29;20208;-85
2022/06/08 05:47:23;;;;;;;3.65;2.67;;;;;;;19.51;65.69;95285.94;4957268;29;20220;-88
2022/06/08 05:49:49;;;;;;;4.60;1.63;;;;;;;19.53;64.87;95287.28;4957160;29;20220;-87
2022/06/08 05:52:17;;;;;;;1.40;1.20;;;;;;;19.60;65.06;95274.88;4956767;28;20236;-87
2022/06/08 05:54:45;;;;;;;1.33;1.20;;;;;;;19.67;64.35;95278.09;4956535;28;20664;-87
2022/06/08 05:57:12;;;;;;;2.17;1.50;;;;;;;19.61;63.14;95271.22;4957195;29;20243;-86
2022/06/08 05:59:38;;;;;;;2.67;1.35;;;;;;;19.61;63.96;95276.44;4956837;29;20465;-87
2022/06/08 06:02:08;;;;;;;3.30;1.30;;;;;;;19.68;63.97;95281.50;4956056;28;20247;-86
2022/06/08 06:04:35;;;;;;;3.83;1.33;;;;;;;19.76;63.10;95282.91;4957192;29;20814;-87
2022/06/08 06:07:03;;;;;;;1.80;1.40;;;;;;;19.70;60.93;95281.25;4956043;29;20208;-86
2022/06/08 06:09:30;;;;;;;1.85;1.35;;;;;;;19.77;63.25;95287.09;4956760;29;20200;-87
2022/06/08 06:11:57;;;;;;;2.08;1.30;;;;;;;19.76;62.92;95280.28;4954113;28;20232;-85
2022/06/08 06:14:23;;;;;;;1.55;1.45;;;;;;;19.86;64.14;95283.03;4955876;28;20586;-87
2022/06/08 06:16:49;;;;;;;5.07;1.67;;;;;;;19.91;62.94;95281.28;4956261;29;20211;-85
2022/06/08 06:19:17;;;;;;;17.35;15.55;;;;;;;19.87;62.74;95288.00;4956004;29;20217;-87
2022/06/08 06:21:44;;;;;;;6.18;4.20;;;;;;;19.96;62.98;95289.19;4955395;28;20252;-86
2022/06/08 06:24:10;;;;;;;2.28;1.85;;;;;;;19.96;61.75;95291.03;4956329;29;20612;-87
2022/06/08 06:26:36;;;;;;;4.28;1.45;;;;;;;19.87;60.72;95288.00;4955755;29;20613;-88
2022/06/08 06:29:03;;;;;;;4.05;1.65;;;;;;;19.91;61.52;95283.91;4955067;29;20200;-85
2022/06/08 06:31:38;;;;;;;2.90;1.40;;;;;;;19.87;60.10;95274.16;4954307;28;20233;-87
2022/06/08 06:34:04;;;;;;;3.05;1.30;;;;;;;19.87;61.68;95271.53;4957668;29;20211;-84
2022/06/08 06:36:32;;;;;;;1.80;1.60;;;;;;;19.95;62.17;95271.94;4957226;29;20209;-88
2022/06/08 06:38:58;;;;;;;2.50;1.45;;;;;;;20.06;60.80;95270.22;4939700;29;20228;-87
2022/06/08 06:41:26;;;;;;;2.70;1.48;;;;;;;20.13;60.17;95264.81;4950671;28;20646;-87
2022/06/08 06:43:53;;;;;;;2.10;1.42;;;;;;;20.17;60.22;95271.16;4957211;29;20219;-87
2022/06/08 06:46:20;;;;;;;4.60;1.75;;;;;;;20.15;60.37;95267.97;4956454;28;20201;-85
2022/06/08 06:48:46;;;;;;;1.20;1.10;;;;;;;20.17;59.93;95273.75;4956173;29;20205;-87
2022/06/08 06:51:13;;;;;;;3.00;1.50;;;;;;;20.17;60.44;95271.94;4954420;28;20235;-88
2022/06/08 06:53:40;;;;;;;5.07;1.75;;;;;;;20.20;60.45;95260.22;4952801;29;20225;-86
2022/06/08 06:56:08;;;;;;;3.63;1.60;;;;;;;20.30;61.52;95268.16;4955380;29;20775;-87
2022/06/08 06:58:35;;;;;;;2.42;1.70;;;;;;;20.35;60.30;95268.22;4955493;29;20231;-87
2022/06/08 07:01:01;;;;;;;3.17;1.50;;;;;;;20.30;59.54;95248.03;4953950;28;20270;-87
2022/06/08 07:03:29;;;;;;;2.85;1.48;;;;;;;20.33;59.41;95258.00;4954538;29;20197;-85
2022/06/08 07:05:56;;;;;;;4.05;1.77;;;;;;;20.31;59.21;95248.81;4955072;29;20628;-87
2022/06/08 07:08:22;;;;;;;3.67;1.60;;;;;;;20.32;60.57;95245.16;4955603;29;20196;-86
2022/06/08 07:13:30;;;;;;;2.70;1.70;;;;;;;20.39;60.36;95252.88;4955153;29;20205;-86
2022/06/08 07:15:57;;;;;;;2.13;1.40;;;;;;;20.47;60.53;95255.81;4956273;29;20287;-85
2022/06/08 07:18:23;;;;;;;3.38;1.38;;;;;;;20.44;60.11;95248.44;4955468;29;20224;-86
2022/06/08 07:20:50;;;;;;;1.67;1.27;;;;;;;20.47;58.69;95245.34;4955224;28;20223;-87
2022/06/08 07:23:16;;;;;;;3.40;1.40;;;;;;;20.41;58.68;95245.53;4955292;29;20641;-87
2022/06/08 07:25:43;;;;;;;3.33;1.40;;;;;;;20.49;60.21;95247.72;4954650;29;20856;-86
2022/06/08 07:28:13;;;;;;;2.30;1.52;;;;;;;20.60;60.26;95244.94;4954827;29;20205;-86
2022/06/08 07:30:40;;;;;;;1.58;1.42;;;;;;;20.65;59.62;95242.38;4954436;28;21935;-86
2022/06/08 07:33:06;;;;;;;3.47;1.50;;;;;;;20.72;58.71;95246.63;4954579;29;20199;-87
2022/06/08 07:35:33;;;;;;;3.58;1.95;;;;;;;20.62;57.60;95236.84;4954561;29;20779;-87
2022/06/08 07:37:59;;;;;;;5.00;2.10;;;;;;;20.58;57.17;95236.59;4954922;29;20208;-87
2022/06/08 07:40:27;;;;;;;5.32;3.28;;;;;;;20.63;57.90;95223.53;4954747;28;20236;-86
2022/06/08 07:42:55;;;;;;;4.20;2.75;;;;;;;20.67;58.96;95218.59;4954172;28;20318;-86
2022/06/08 07:45:23;;;;;;;10.25;9.02;;;;;;;20.89;58.64;95226.38;4955454;29;20225;-86
2022/06/08 07:50:33;;;;;;;2.63;1.55;;;;;;;21.02;55.96;95221.50;4955587;28;20239;-88
2022/06/08 07:53:00;;;;;;;3.35;1.90;;;;;;;21.04;55.74;95222.03;4957097;29;20216;-87
2022/06/08 07:55:27;;;;;;;8.73;1.60;;;;;;;21.16;55.46;95221.09;4958799;29;20720;-86
2022/06/08 07:57:54;;;;;;;2.35;1.80;;;;;;;21.21;56.45;95219.31;4959023;29;20209;-88
2022/06/08 08:00:21;;;;;;;2.55;1.70;;;;;;;21.37;56.49;95205.25;4957200;28;20196;-87
2022/06/08 08:02:49;;;;;;;3.25;1.70;;;;;;;21.42;56.23;95201.09;4955984;28;20221;-88
2022/06/08 08:05:17;;;;;;;1.60;1.50;;;;;;;21.37;55.56;95194.00;4956212;29;20574;-87
2022/06/08 08:07:44;;;;;;;2.03;1.50;;;;;;;21.40;53.97;95201.34;4956490;29;20301;-88
2022/06/08 08:10:15;;;;;;;4.25;1.67;;;;;;;21.52;54.46;95193.31;4955344;28;20197;-88
2022/06/08 08:12:41;;;;;;;2.83;1.73;;;;;;;21.74;55.75;95196.56;4956158;28;20236;-86
2022/06/08 08:15:09;;;;;;;1.95;1.55;;;;;;;21.93;53.56;95194.28;4956236;29;20617;-85
2022/06/08 08:17:35;;;;;;;2.45;1.40;;;;;;;22.01;51.91;95181.50;4956246;29;20201;-87
2022/06/08 08:20:04;;;;;;;2.35;1.70;;;;;;;22.09;51.68;95182.84;4955692;28;20220;-85
2022/06/08 08:22:31;;;;;;;3.90;1.58;;;;;;;22.15;52.61;95184.41;4955566;28;20287;-88
2022/06/08 08:24:57;;;;;;;2.70;1.70;;;;;;;21.94;53.83;95185.34;4956350;29;20197;-84
2022/06/08 08:27:24;;;;;;;3.20;1.95;;;;;;;21.88;54.58;95187.19;4956137;29;20684;-88
2022/06/08 08:29:51;;;;;;;1.50;1.40;;;;;;;22.01;54.18;95176.25;4954201;29;20205;-88
2022/06/08 08:32:17;;;;;;;3.72;1.60;;;;;;;22.10;52.87;95179.16;4948186;28;20271;-87
2022/06/08 08:34:44;;;;;;;2.97;1.40;;;;;;;21.92;53.24;95175.16;4945188;29;20197;-86
2022/06/08 08:37:11;;;;;;;2.80;1.50;;;;;;;21.65;54.54;95171.88;4951378;29;20197;-87
2022/06/08 08:39:38;;;;;;;3.58;1.50;;;;;;;21.55;55.68;95172.63;4954983;29;20651;-88
2022/06/08 08:42:21;;;;;;;3.00;1.70;;;;;;;21.60;56.20;95167.41;4955278;28;20328;-87
2022/06/08 08:44:51;;;;;;;3.28;1.60;;;;;;;22.00;52.86;95168.63;4956356;29;20201;-88
2022/06/08 08:47:25;;;;;;;3.20;1.50;;;;;;;22.35;51.15;95173.97;4956271;29;20651;-88
2022/06/08 08:49:55;;;;;;;1.85;1.38;;;;;;;22.58;50.68;95167.44;4956070;29;20568;-88
2022/06/08 08:52:31;;;;;;;3.58;1.50;;;;;;;22.47;50.53;95159.81;4955281;28;20232;-87
2022/06/08 08:55:01;;;;;;;7.22;6.47;;;;;;;22.59;51.53;95155.09;4955052;29;20632;-88
2022/06/08 08:57:32;;;;;;;6.65;6.03;;;;;;;22.51;51.51;95150.38;4946195;29;20201;-88
2022/06/08 08:59:59;;;;;;;2.80;2.40;;;;;;;22.20;52.41;95157.41;4955334;29;20217;-86
2022/06/08 09:05:15;;;;;;;4.32;1.90;;;;;;;21.88;51.87;95149.69;4976405;28;20223;-88
2022/06/08 09:07:43;;;;;;;1.55;1.45;;;;;;;21.89;51.90;95140.78;4964531;28;20205;-87
2022/06/08 09:10:16;;;;;;;3.08;1.73;;;;;;;22.14;50.53;95146.09;4959981;28;20669;-88
2022/06/08 09:12:44;;;;;;;1.95;1.58;;;;;;;22.54;51.27;95131.47;4960559;28;20236;-88
2022/06/08 09:15:12;;;;;;;2.38;1.52;;;;;;;22.95;49.23;95135.69;4960376;29;20209;-87
2022/06/08 09:17:41;;;;;;;1.80;1.35;;;;;;;23.33;47.36;95125.63;4960059;29;20252;-87
2022/06/08 09:20:24;;;;;;;2.60;1.33;;;;;;;23.66;48.72;95117.13;4959322;28;20228;-86
2022/06/08 09:22:54;;;;;;;2.83;1.50;;;;;;;23.88;46.48;95121.22;4959461;28;20225;-87
2022/06/08 09:25:27;;;;;;;9.82;8.82;;;;;;;23.84;45.75;95114.94;4959352;29;20205;-88
2022/06/08 09:27:57;;;;;;;5.30;4.80;;;;;;;23.98;45.79;95103.56;4959944;29;20530;-88
2022/06/08 09:30:26;;;;;;;4.35;2.58;;;;;;;24.08;45.21;95108.75;4958227;28;20291;-86
2022/06/08 09:32:54;;;;;;;1.85;1.27;;;;;;;23.96;46.29;95097.78;4958782;28;20220;-86
2022/06/08 09:35:27;;;;;;;2.75;1.52;;;;;;;23.98;44.92;95100.91;4958231;29;20482;-84
2022/06/08 09:37:58;;;;;;;3.08;1.80;;;;;;;23.64;44.71;95095.59;4959070;29;20208;-88
2022/06/08 09:40:38;;;;;;;3.78;1.50;;;;;;;23.17;45.25;95082.84;4958640;28;20692;-87
2022/06/08 09:43:19;;;;;;;2.47;1.55;;;;;;;22.80;47.86;95088.44;4960561;29;20216;-86
2022/06/08 09:45:51;;;;;;;2.65;1.58;;;;;;;22.63;47.19;95090.53;4960159;29;20250;-87
2022/06/08 09:51:35;;;;;;;2.00;1.20;;;;;;;22.36;45.35;95083.72;4966000;28;20280;-87
2022/06/08 09:54:12;;;;;;;2.05;1.27;;;;;;;22.09;45.58;95085.03;4967027;29;20208;-87
2022/06/08 09:57:05;;;;;;;1.95;1.30;;;;;;;22.08;45.61;95075.59;4969810;29;20197;-87
2022/06/08 09:59:45;;;;;;;1.75;1.25;;;;;;;22.54;46.51;95077.16;4968208;29;20295;-87
2022/06/08 10:02:19;;;;;;;3.22;1.50;;;;;;;22.66;47.43;95064.56;4966877;28;20241;-87
2022/06/08 10:05:01;;;;;;;1.52;1.27;;;;;;;22.69;47.63;95063.25;4969587;29;20201;-86
2022/06/08 10:07:37;;;;;;;1.88;1.38;;;;;;;22.55;48.19;95062.97;4970588;29;20208;-86
2022/06/08 10:10:25;;;;;;;3.10;1.95;;;;;;;22.77;48.33;95062.72;4967545;28;20267;-86
2022/06/08 10:12:57;;;;;;;2.33;1.77;;;;;;;22.64;48.92;95052.75;4966026;28;20256;-87
2022/06/08 10:15:29;;;;;;;2.60;1.77;;;;;;;22.61;48.76;95050.66;4966045;29;20211;-87
2022/06/08 10:18:00;;;;;;;3.90;1.60;;;;;;;22.51;49.96;95051.47;4964202;29;20205;-87
2022/06/08 10:20:36;;;;;;;2.05;1.65;;;;;;;22.44;49.90;95048.31;4957564;28;20712;-86
2022/06/08 10:23:14;;;;;;;2.00;1.50;;;;;;;22.32;51.43;95048.56;4958945;29;20203;-87
2022/06/08 10:25:46;;;;;;;3.17;1.90;;;;;;;22.28;51.21;95046.75;4959669;29;20215;-86
2022/06/08 10:28:20;;;;;;;3.90;1.80;;;;;;;22.27;50.06;95045.16;4961070;29;20201;-86
2022/06/08 10:30:54;;;;;;;3.13;1.48;;;;;;;22.67;47.67;95032.03;4961642;28;20320;-86
2022/06/08 10:33:25;;;;;;;5.28;1.63;;;;;;;23.19;46.22;95030.84;4967031;29;20249;-85
2022/06/08 10:35:55;;;;;;;3.50;1.45;;;;;;;23.71;45.74;95024.28;4968950;29;20299;-85
2022/06/08 10:38:25;;;;;;;4.13;3.58;;;;;;;23.96;43.86;95025.97;4965573;28;20197;-85
2022/06/08 10:40:57;;;;;;;4.25;2.08;;;;;;;24.28;43.52;95025.50;4955936;28;20247;-85
2022/06/08 10:43:28;;;;;;;1.52;1.20;;;;;;;24.21;41.98;95019.75;4969019;29;20204;-87
2022/06/08 10:46:00;;;;;;;1.70;1.10;;;;;;;23.85;42.11;95019.22;4960012;29;20200;-85
2022/06/08 10:48:45;;;;;;;2.75;1.42;;;;;;;23.52;44.34;95020.72;4971151;29;20256;-86
2022/06/08 10:51:31;;;;;;;4.18;1.70;;;;;;;23.22;45.19;95019.00;4966536;28;20243;-86
2022/06/08 10:56:52;;;;;;;3.63;2.70;;;;;;;23.23;46.33;95004.81;4963511;29;20293;-86
2022/06/08 10:59:24;;;;;;;8.85;7.95;;;;;;;23.21;46.15;95001.69;4949768;29;20216;-87
2022/06/08 11:02:02;;;;;;;4.40;3.78;;;;;;;23.50;47.06;95007.03;4964185;28;20241;-86
2022/06/08 11:04:55;;;;;;;3.60;2.35;;;;;;;23.39;45.80;95001.84;4949014;29;20216;-85
2022/06/08 11:07:22;;;;;;;1.50;1.10;;;;;;;23.19;43.92;94994.06;4943232;29;20297;-86
2022/06/08 11:10:04;;;;;;;1.70;1.20;;;;;;;23.04;43.00;94991.50;4948274;29;20193;-86
2022/06/08 11:12:50;;;;;;;2.25;1.15;;;;;;;23.18;43.94;94991.72;4956506;28;20553;-86
2022/06/08 11:15:27;;;;;;;4.68;1.33;;;;;;;22.80;45.81;94982.66;4958393;28;20209;-86
2022/06/08 11:17:58;;;;;;;2.22;1.42;;;;;;;22.87;44.77;94983.19;4958866;29;20228;-85
2022/06/08 11:20:32;;;;;;;2.15;1.27;;;;;;;22.93;44.46;94969.75;4957975;28;20248;-86
2022/06/08 11:23:03;;;;;;;4.03;1.20;;;;;;;23.00;45.39;94970.25;4957748;28;20219;-86
2022/06/08 11:25:33;;;;;;;2.22;1.45;;;;;;;22.93;45.07;94963.72;4958602;28;20205;-85
2022/06/08 11:28:34;;;;;;;1.50;1.30;;;;;;;23.09;42.71;94960.75;4958928;29;20212;-87
2022/06/08 11:31:05;;;;;;;1.95;1.60;;;;;;;23.36;42.35;94962.19;4937830;29;20635;-86
2022/06/08 11:33:58;;;;;;;1.58;1.25;;;;;;;23.17;43.30;94963.88;4938662;29;20578;-86
2022/06/08 11:36:58;;;;;;;2.00;1.40;;;;;;;23.20;43.68;94956.25;4948539;29;20654;-85
2022/06/08 11:39:31;;;;;;;2.53;1.20;;;;;;;23.49;43.58;94951.06;4946946;29;20225;-86
2022/06/08 11:42:01;;;;;;;3.60;1.52;;;;;;;24.05;42.16;94942.81;4956504;28;20236;-87
2022/06/08 11:44:34;;;;;;;2.42;1.13;;;;;;;24.52;40.55;94928.16;4957544;28;20263;-86
2022/06/08 11:49:38;;;;;;;1.77;1.20;;;;;;;25.00;42.50;94934.22;4970727;28;20296;-80
2022/06/08 11:52:33;;;;;;;3.67;1.33;;;;;;;25.06;41.54;94919.91;4981623;28;20736;-80
2022/06/08 11:55:01;;;;;;;1.85;1.30;;;;;;;24.74;42.21;94920.56;4986544;28;20192;-79
2022/06/08 11:57:29;;;;;;;1.63;1.48;;;;;;;24.42;43.75;94918.53;4978309;28;20216;-81
2022/06/08 11:59:59;;;;;;;3.67;1.50;;;;;;;24.05;43.37;94933.06;4979772;28;20290;-80
2022/06/08 12:02:35;;;;;;;4.10;1.38;;;;;;;23.64;44.10;94937.09;4979381;28;20204;-80
2022/06/08 12:05:02;;;;;;;2.10;1.50;;;;;;;23.49;44.47;94935.31;4971432;28;20616;-80